Port Stanley — V7EE9 — position and weather

sailwx.info

Track history (hours):
 
Tides and Currents Weather Stations Pressure Air Temp Water Temp Dewpoint Dewpoint Depression Visibility Wind Speed Wind Dir Waves Ship Positions

Port Stanley

Last reported at 2016-Jun-19 10:15 UTC. Time now 2016-Jun-26 21:03 UTC.
Position N 22°51' E 116°39'.

Length 183 m; draft 8.4 m.

Type: Ship. MMSI: 538090299.

Date/timePositionNaut miles runAvg speedWind from/ knotsBaromVisibWave heightAir tempDewpointWater temp
2016-Jun-19 10:15N 22°51' E 116°39'10913.4
2016-Jun-19 02:08N 23°57' E 118°13'812.8
2016-Jun-19 01:31N 24°02' E 118°19'1412.6
2016-Jun-19 00:22N 24°12' E 118°31'1112.5
2016-Jun-18 23:32N 24°18' E 118°40'1212.2
2016-Jun-18 22:33N 24°24' E 118°52'1312.3
2016-Jun-18 21:31N 24°30' E 119°04'1212.3
2016-Jun-18 20:33N 24°36' E 119°15'39712.3
2016-Jun-17 12:09N 30°26' E 122°47'1911.6
2016-Jun-17 10:32N 30°31' E 122°26'10 9.9
2016-Jun-17 09:33N 30°33' E 122°15'7 0.3
2016-Jun-16 07:19N 30°35' E 122°07'31 2.2
2016-Jun-15 17:25N 30°27' E 122°42'1010.7
2016-Jun-15 16:30N 30°24' E 122°52'  
Track history (hours):
 
Tides and Currents Weather Stations Pressure Air Temp Water Temp Dewpoint Dewpoint Depression Visibility Wind Speed Wind Dir Waves Ship Positions

Port Stanley

Last reported at 2016-Jun-19 10:15 UTC. Time now 2016-Jun-26 21:03 UTC.
Position N 22°51' E 116°39'.

Length 183 m; draft 8.4 m.

Type: Ship. MMSI: 538090299.

Date/timePositionNaut miles runAvg speedWind from/ knotsBaromVisibWave heightAir tempDewpointWater temp
2016-Jun-19 10:15N 22°51' E 116°39'10913.4
2016-Jun-19 02:08N 23°57' E 118°13'812.8
2016-Jun-19 01:31N 24°02' E 118°19'1412.6
2016-Jun-19 00:22N 24°12' E 118°31'1112.5
2016-Jun-18 23:32N 24°18' E 118°40'1212.2
2016-Jun-18 22:33N 24°24' E 118°52'1312.3
2016-Jun-18 21:31N 24°30' E 119°04'1212.3
2016-Jun-18 20:33N 24°36' E 119°15'39712.3
2016-Jun-17 12:09N 30°26' E 122°47'1911.6
2016-Jun-17 10:32N 30°31' E 122°26'10 9.9
2016-Jun-17 09:33N 30°33' E 122°15'7 0.3
2016-Jun-16 07:19N 30°35' E 122°07'31 2.2
2016-Jun-15 17:25N 30°27' E 122°42'1010.7
2016-Jun-15 16:30N 30°24' E 122°52'  

Dump ship's entire track history